sensor_id;sensor_type;location;lat;lon;timestamp;pressure;altitude;pressure_sealevel;temperature
63158;BMP280;49381;49.338;8.794;2023-01-31T00:01:15;101252.28;;;4.47
63158;BMP280;49381;49.338;8.794;2023-01-31T00:03:17;101253.44;;;4.53
63158;BMP280;49381;49.338;8.794;2023-01-31T00:05:17;101266.13;;;4.56
63158;BMP280;49381;49.338;8.794;2023-01-31T00:07:18;101266.72;;;4.51
63158;BMP280;49381;49.338;8.794;2023-01-31T00:09:19;101275.84;;;4.49
63158;BMP280;49381;49.338;8.794;2023-01-31T00:11:21;101273.00;;;4.60
63158;BMP280;49381;49.338;8.794;2023-01-31T00:13:21;101279.63;;;4.41
63158;BMP280;49381;49.338;8.794;2023-01-31T00:15:22;101273.66;;;4.56
63158;BMP280;49381;49.338;8.794;2023-01-31T00:17:22;101277.38;;;4.64
63158;BMP280;49381;49.338;8.794;2023-01-31T00:19:24;101274.25;;;4.70
63158;BMP280;49381;49.338;8.794;2023-01-31T00:21:26;101267.25;;;4.63
63158;BMP280;49381;49.338;8.794;2023-01-31T00:23:27;101279.44;;;4.73
63158;BMP280;49381;49.338;8.794;2023-01-31T00:25:27;101276.56;;;4.65
63158;BMP280;49381;49.338;8.794;2023-01-31T00:27:27;101271.81;;;4.52
63158;BMP280;49381;49.338;8.794;2023-01-31T00:29:28;101280.69;;;4.63
63158;BMP280;49381;49.338;8.794;2023-01-31T00:31:30;101279.28;;;4.70
63158;BMP280;49381;49.338;8.794;2023-01-31T00:33:30;101281.06;;;4.72
63158;BMP280;49381;49.338;8.794;2023-01-31T00:35:32;101281.13;;;4.74
63158;BMP280;49381;49.338;8.794;2023-01-31T00:37:32;101278.66;;;4.56
63158;BMP280;49381;49.338;8.794;2023-01-31T00:39:32;101270.09;;;4.70
63158;BMP280;49381;49.338;8.794;2023-01-31T00:41:34;101273.53;;;4.53
63158;BMP280;49381;49.338;8.794;2023-01-31T00:43:35;101271.94;;;4.55
63158;BMP280;49381;49.338;8.794;2023-01-31T00:45:35;101274.06;;;4.65
63158;BMP280;49381;49.338;8.794;2023-01-31T00:47:35;101278.38;;;4.68
63158;BMP280;49381;49.338;8.794;2023-01-31T00:49:36;101279.34;;;4.71
63158;BMP280;49381;49.338;8.794;2023-01-31T00:51:37;101276.16;;;4.75
63158;BMP280;49381;49.338;8.794;2023-01-31T00:53:38;101271.19;;;4.76
63158;BMP280;49381;49.338;8.794;2023-01-31T00:55:38;101273.00;;;4.79
63158;BMP280;49381;49.338;8.794;2023-01-31T00:57:39;101269.84;;;4.83
63158;BMP280;49381;49.338;8.794;2023-01-31T00:59:39;101272.56;;;4.87
63158;BMP280;49381;49.338;8.794;2023-01-31T01:01:39;101270.09;;;4.89
63158;BMP280;49381;49.338;8.794;2023-01-31T01:03:41;101264.28;;;4.90
63158;BMP280;49381;49.338;8.794;2023-01-31T01:05:42;101262.66;;;4.92
63158;BMP280;49381;49.338;8.794;2023-01-31T01:07:43;101260.84;;;4.88
63158;BMP280;49381;49.338;8.794;2023-01-31T01:09:44;101258.19;;;4.85
63158;BMP280;49381;49.338;8.794;2023-01-31T01:11:44;101267.59;;;4.89
63158;BMP280;49381;49.338;8.794;2023-01-31T01:13:44;101267.44;;;4.67
63158;BMP280;49381;49.338;8.794;2023-01-31T01:15:45;101259.69;;;4.81
63158;BMP280;49381;49.338;8.794;2023-01-31T01:17:45;101255.63;;;4.83
63158;BMP280;49381;49.338;8.794;2023-01-31T01:19:45;101257.94;;;4.79
63158;BMP280;49381;49.338;8.794;2023-01-31T01:21:46;101269.09;;;4.48
63158;BMP280;49381;49.338;8.794;2023-01-31T01:23:48;101268.78;;;4.59
63158;BMP280;49381;49.338;8.794;2023-01-31T01:25:48;101275.25;;;4.54
63158;BMP280;49381;49.338;8.794;2023-01-31T01:27:48;101278.00;;;4.60
63158;BMP280;49381;49.338;8.794;2023-01-31T01:29:49;101271.53;;;4.65
63158;BMP280;49381;49.338;8.794;2023-01-31T01:31:49;101274.97;;;4.67
63158;BMP280;49381;49.338;8.794;2023-01-31T01:33:50;101280.28;;;4.73
63158;BMP280;49381;49.338;8.794;2023-01-31T01:35:50;101283.44;;;4.69
63158;BMP280;49381;49.338;8.794;2023-01-31T01:37:50;101285.16;;;4.70
63158;BMP280;49381;49.338;8.794;2023-01-31T01:39:52;101275.66;;;4.63
63158;BMP280;49381;49.338;8.794;2023-01-31T01:41:52;101270.25;;;4.73
63158;BMP280;49381;49.338;8.794;2023-01-31T01:43:55;101279.44;;;4.73
63158;BMP280;49381;49.338;8.794;2023-01-31T01:45:56;101278.28;;;4.48
63158;BMP280;49381;49.338;8.794;2023-01-31T01:47:59;101278.88;;;4.25
63158;BMP280;49381;49.338;8.794;2023-01-31T01:50:03;101277.53;;;4.50
63158;BMP280;49381;49.338;8.794;2023-01-31T01:52:08;101275.69;;;4.46
63158;BMP280;49381;49.338;8.794;2023-01-31T01:54:14;101271.88;;;4.54
63158;BMP280;49381;49.338;8.794;2023-01-31T01:56:20;101277.88;;;4.39
63158;BMP280;49381;49.338;8.794;2023-01-31T01:58:22;101277.19;;;4.24
63158;BMP280;49381;49.338;8.794;2023-01-31T02:00:26;101284.53;;;4.38
63158;BMP280;49381;49.338;8.794;2023-01-31T02:02:27;101276.53;;;4.28
63158;BMP280;49381;49.338;8.794;2023-01-31T02:04:31;101277.00;;;4.38
63158;BMP280;49381;49.338;8.794;2023-01-31T02:06:32;101277.53;;;4.50
63158;BMP280;49381;49.338;8.794;2023-01-31T02:08:35;101286.19;;;4.38
63158;BMP280;49381;49.338;8.794;2023-01-31T02:10:41;101281.94;;;4.37
63158;BMP280;49381;49.338;8.794;2023-01-31T02:12:45;101292.59;;;4.50
63158;BMP280;49381;49.338;8.794;2023-01-31T02:14:45;101286.19;;;4.38
63158;BMP280;49381;49.338;8.794;2023-01-31T02:16:46;101298.97;;;4.25
63158;BMP280;49381;49.338;8.794;2023-01-31T02:18:47;101295.72;;;4.45
63158;BMP280;49381;49.338;8.794;2023-01-31T02:23:42;101292.50;;;4.30
63158;BMP280;49381;49.338;8.794;2023-01-31T02:26:12;101294.22;;;4.31
63158;BMP280;49381;49.338;8.794;2023-01-31T02:28:53;101289.78;;;4.43
63158;BMP280;49381;49.338;8.794;2023-01-31T02:31:24;101291.06;;;4.35
63158;BMP280;49381;49.338;8.794;2023-01-31T02:33:35;101295.22;;;4.34
63158;BMP280;49381;49.338;8.794;2023-01-31T02:35:48;101291.81;;;4.15
63158;BMP280;49381;49.338;8.794;2023-01-31T02:37:58;101291.06;;;4.35
63158;BMP280;49381;49.338;8.794;2023-01-31T02:40:07;101290.53;;;4.42
63158;BMP280;49381;49.338;8.794;2023-01-31T02:42:15;101294.47;;;4.18
63158;BMP280;49381;49.338;8.794;2023-01-31T02:44:23;101297.16;;;4.40
63158;BMP280;49381;49.338;8.794;2023-01-31T02:46:32;101291.59;;;4.47
63158;BMP280;49381;49.338;8.794;2023-01-31T02:48:41;101293.53;;;4.52
63158;BMP280;49381;49.338;8.794;2023-01-31T02:50:49;101289.44;;;4.54
63158;BMP280;49381;49.338;8.794;2023-01-31T02:52:57;101290.69;;;4.45
63158;BMP280;49381;49.338;8.794;2023-01-31T02:55:04;101288.94;;;4.25
63158;BMP280;49381;49.338;8.794;2023-01-31T02:57:07;101293.56;;;4.35
63158;BMP280;49381;49.338;8.794;2023-01-31T02:59:15;101286.97;;;4.37
63158;BMP280;49381;49.338;8.794;2023-01-31T03:01:21;101281.34;;;4.42
63158;BMP280;49381;49.338;8.794;2023-01-31T03:03:24;101284.06;;;4.47
63158;BMP280;49381;49.338;8.794;2023-01-31T03:05:28;101281.19;;;4.38
63158;BMP280;49381;49.338;8.794;2023-01-31T03:07:30;101282.88;;;4.39
63158;BMP280;49381;49.338;8.794;2023-01-31T03:09:35;101280.88;;;4.32
63158;BMP280;49381;49.338;8.794;2023-01-31T03:11:39;101273.56;;;4.36
63158;BMP280;49381;49.338;8.794;2023-01-31T03:13:46;101280.28;;;4.37
63158;BMP280;49381;49.338;8.794;2023-01-31T03:15:59;101285.47;;;4.40
63158;BMP280;49381;49.338;8.794;2023-01-31T03:18:06;101281.25;;;4.39
63158;BMP280;49381;49.338;8.794;2023-01-31T03:20:11;101282.63;;;4.33
63158;BMP280;49381;49.338;8.794;2023-01-31T03:22:20;101287.50;;;4.30
63158;BMP280;49381;49.338;8.794;2023-01-31T03:24:24;101286.56;;;4.28
63158;BMP280;49381;49.338;8.794;2023-01-31T03:26:25;101291.44;;;4.25
63158;BMP280;49381;49.338;8.794;2023-01-31T03:28:28;101291.66;;;4.29
63158;BMP280;49381;49.338;8.794;2023-01-31T03:30:33;101286.38;;;4.24
63158;BMP280;49381;49.338;8.794;2023-01-31T03:32:38;101289.47;;;4.18
63158;BMP280;49381;49.338;8.794;2023-01-31T03:34:41;101290.22;;;4.17
63158;BMP280;49381;49.338;8.794;2023-01-31T03:36:48;101304.41;;;4.17
63158;BMP280;49381;49.338;8.794;2023-01-31T03:38:56;101302.72;;;4.16
63158;BMP280;49381;49.338;8.794;2023-01-31T03:41:04;101303.22;;;4.09
63158;BMP280;49381;49.338;8.794;2023-01-31T03:43:13;101307.50;;;4.11
63158;BMP280;49381;49.338;8.794;2023-01-31T03:45:18;101314.19;;;4.11
63158;BMP280;49381;49.338;8.794;2023-01-31T03:47:23;101323.22;;;3.90
63158;BMP280;49381;49.338;8.794;2023-01-31T03:49:26;101318.47;;;3.96
63158;BMP280;49381;49.338;8.794;2023-01-31T03:51:30;101319.22;;;3.94
63158;BMP280;49381;49.338;8.794;2023-01-31T03:53:34;101325.22;;;3.97
63158;BMP280;49381;49.338;8.794;2023-01-31T03:55:42;101322.00;;;4.00
63158;BMP280;49381;49.338;8.794;2023-01-31T03:57:47;101332.84;;;3.99
63158;BMP280;49381;49.338;8.794;2023-01-31T03:59:51;101323.38;;;3.93
63158;BMP280;49381;49.338;8.794;2023-01-31T04:01:55;101322.59;;;3.94
63158;BMP280;49381;49.338;8.794;2023-01-31T04:04:00;101330.31;;;3.99
63158;BMP280;49381;49.338;8.794;2023-01-31T04:06:02;101325.38;;;4.00
63158;BMP280;49381;49.338;8.794;2023-01-31T04:08:03;101331.09;;;3.98
63158;BMP280;49381;49.338;8.794;2023-01-31T04:10:06;101334.38;;;3.97
63158;BMP280;49381;49.338;8.794;2023-01-31T04:12:11;101337.56;;;3.93
63158;BMP280;49381;49.338;8.794;2023-01-31T04:14:11;101334.97;;;3.91
63158;BMP280;49381;49.338;8.794;2023-01-31T04:16:12;101334.16;;;3.92
63158;BMP280;49381;49.338;8.794;2023-01-31T04:18:13;101330.81;;;3.92
63158;BMP280;49381;49.338;8.794;2023-01-31T04:20:14;101334.09;;;3.91
63158;BMP280;49381;49.338;8.794;2023-01-31T04:22:14;101319.56;;;3.84
63158;BMP280;49381;49.338;8.794;2023-01-31T04:24:15;101330.81;;;3.75
63158;BMP280;49381;49.338;8.794;2023-01-31T04:26:15;101322.72;;;3.80
63158;BMP280;49381;49.338;8.794;2023-01-31T04:28:17;101318.34;;;3.76
63158;BMP280;49381;49.338;8.794;2023-01-31T04:30:17;101312.84;;;3.83
63158;BMP280;49381;49.338;8.794;2023-01-31T04:32:17;101319.69;;;3.87
63158;BMP280;49381;49.338;8.794;2023-01-31T04:34:18;101319.47;;;3.82
63158;BMP280;49381;49.338;8.794;2023-01-31T04:36:18;101313.47;;;3.79
63158;BMP280;49381;49.338;8.794;2023-01-31T04:38:18;101324.78;;;3.71
63158;BMP280;49381;49.338;8.794;2023-01-31T04:40:19;101319.13;;;3.75
63158;BMP280;49381;49.338;8.794;2023-01-31T04:42:19;101327.66;;;3.78
63158;BMP280;49381;49.338;8.794;2023-01-31T04:44:21;101337.75;;;3.80
63158;BMP280;49381;49.338;8.794;2023-01-31T04:46:21;101343.56;;;3.79
63158;BMP280;49381;49.338;8.794;2023-01-31T04:48:22;101337.38;;;3.73
63158;BMP280;49381;49.338;8.794;2023-01-31T04:50:22;101348.69;;;3.65
63158;BMP280;49381;49.338;8.794;2023-01-31T04:52:23;101338.50;;;3.62
63158;BMP280;49381;49.338;8.794;2023-01-31T04:54:23;101336.22;;;3.66
63158;BMP280;49381;49.338;8.794;2023-01-31T04:56:23;101330.00;;;3.58
63158;BMP280;49381;49.338;8.794;2023-01-31T04:58:24;101329.34;;;3.62
63158;BMP280;49381;49.338;8.794;2023-01-31T05:00:26;101333.66;;;3.65
63158;BMP280;49381;49.338;8.794;2023-01-31T05:02:26;101326.69;;;3.59
63158;BMP280;49381;49.338;8.794;2023-01-31T05:04:26;101325.75;;;3.57
63158;BMP280;49381;49.338;8.794;2023-01-31T05:06:26;101314.81;;;3.55
63158;BMP280;49381;49.338;8.794;2023-01-31T05:08:27;101314.63;;;3.52
63158;BMP280;49381;49.338;8.794;2023-01-31T05:10:27;101317.31;;;3.55
63158;BMP280;49381;49.338;8.794;2023-01-31T05:12:28;101319.53;;;3.50
63158;BMP280;49381;49.338;8.794;2023-01-31T05:14:28;101314.81;;;3.55
63158;BMP280;49381;49.338;8.794;2023-01-31T05:16:30;101313.88;;;3.53
63158;BMP280;49381;49.338;8.794;2023-01-31T05:18:30;101319.53;;;3.50
63158;BMP280;49381;49.338;8.794;2023-01-31T05:20:33;101317.66;;;3.46
63158;BMP280;49381;49.338;8.794;2023-01-31T05:22:35;101313.44;;;3.45
63158;BMP280;49381;49.338;8.794;2023-01-31T05:24:35;101321.28;;;3.52
63158;BMP280;49381;49.338;8.794;2023-01-31T05:26:35;101316.22;;;3.50
63158;BMP280;49381;49.338;8.794;2023-01-31T05:28:35;101325.47;;;3.51
63158;BMP280;49381;49.338;8.794;2023-01-31T05:30:36;101317.47;;;3.43
63158;BMP280;49381;49.338;8.794;2023-01-31T05:32:38;101309.09;;;3.42
63158;BMP280;49381;49.338;8.794;2023-01-31T05:34:38;101309.19;;;3.44
63158;BMP280;49381;49.338;8.794;2023-01-31T05:36:39;101310.84;;;3.43
63158;BMP280;49381;49.338;8.794;2023-01-31T05:38:40;101311.38;;;3.38
63158;BMP280;49381;49.338;8.794;2023-01-31T05:40:40;101305.63;;;3.39
63158;BMP280;49381;49.338;8.794;2023-01-31T05:42:40;101312.19;;;3.37
63158;BMP280;49381;49.338;8.794;2023-01-31T05:44:41;101310.06;;;3.44
63158;BMP280;49381;49.338;8.794;2023-01-31T05:46:41;101314.56;;;3.51
63158;BMP280;49381;49.338;8.794;2023-01-31T05:48:43;101319.28;;;3.45
63158;BMP280;49381;49.338;8.794;2023-01-31T05:50:43;101321.88;;;3.47
63158;BMP280;49381;49.338;8.794;2023-01-31T05:52:49;101318.28;;;3.42
63158;BMP280;49381;49.338;8.794;2023-01-31T05:54:49;101327.78;;;3.31
63158;BMP280;49381;49.338;8.794;2023-01-31T05:56:50;101326.75;;;3.44
63158;BMP280;49381;49.338;8.794;2023-01-31T05:58:50;101327.84;;;3.49
63158;BMP280;49381;49.338;8.794;2023-01-31T06:00:54;101329.03;;;3.56
63158;BMP280;49381;49.338;8.794;2023-01-31T06:02:56;101324.75;;;3.54
63158;BMP280;49381;49.338;8.794;2023-01-31T06:04:58;101320.38;;;3.50
63158;BMP280;49381;49.338;8.794;2023-01-31T06:06:58;101321.25;;;3.50
63158;BMP280;49381;49.338;8.794;2023-01-31T06:08:58;101325.63;;;3.54
63158;BMP280;49381;49.338;8.794;2023-01-31T06:11:00;101324.59;;;3.51
63158;BMP280;49381;49.338;8.794;2023-01-31T06:13:03;101322.94;;;3.51
63158;BMP280;49381;49.338;8.794;2023-01-31T06:15:04;101313.88;;;3.53
63158;BMP280;49381;49.338;8.794;2023-01-31T06:17:04;101322.31;;;3.55
63158;BMP280;49381;49.338;8.794;2023-01-31T06:19:05;101322.31;;;3.55
63158;BMP280;49381;49.338;8.794;2023-01-31T06:21:07;101334.78;;;3.54
63158;BMP280;49381;49.338;8.794;2023-01-31T06:23:07;101328.91;;;3.53
63158;BMP280;49381;49.338;8.794;2023-01-31T06:25:08;101334.00;;;3.55
63158;BMP280;49381;49.338;8.794;2023-01-31T06:27:09;101337.38;;;3.55
63158;BMP280;49381;49.338;8.794;2023-01-31T06:29:11;101332.34;;;3.55
63158;BMP280;49381;49.338;8.794;2023-01-31T06:31:15;101337.00;;;3.48
63158;BMP280;49381;49.338;8.794;2023-01-31T06:33:19;101342.66;;;3.44
63158;BMP280;49381;49.338;8.794;2023-01-31T06:35:24;101339.34;;;3.45
63158;BMP280;49381;49.338;8.794;2023-01-31T06:37:27;101337.06;;;3.50
63158;BMP280;49381;49.338;8.794;2023-01-31T06:39:27;101344.44;;;3.47
63158;BMP280;49381;49.338;8.794;2023-01-31T06:41:28;101343.78;;;3.50
63158;BMP280;49381;49.338;8.794;2023-01-31T06:43:29;101337.28;;;3.54
63158;BMP280;49381;49.338;8.794;2023-01-31T06:45:31;101344.88;;;3.55
63158;BMP280;49381;49.338;8.794;2023-01-31T06:47:33;101350.19;;;3.61
63158;BMP280;49381;49.338;8.794;2023-01-31T06:49:34;101358.91;;;3.52
63158;BMP280;49381;49.338;8.794;2023-01-31T06:51:34;101355.53;;;3.51
63158;BMP280;49381;49.338;8.794;2023-01-31T06:53:38;101360.78;;;3.56
63158;BMP280;49381;49.338;8.794;2023-01-31T06:55:41;101355.69;;;3.54
63158;BMP280;49381;49.338;8.794;2023-01-31T06:57:45;101349.91;;;3.55
63158;BMP280;49381;49.338;8.794;2023-01-31T06:59:46;101352.25;;;3.52
63158;BMP280;49381;49.338;8.794;2023-01-31T07:01:46;101351.72;;;3.42
63158;BMP280;49381;49.338;8.794;2023-01-31T07:03:47;101349.09;;;3.56
63158;BMP280;49381;49.338;8.794;2023-01-31T07:05:49;101348.25;;;3.56
63158;BMP280;49381;49.338;8.794;2023-01-31T07:07:51;101357.53;;;3.25
63158;BMP280;49381;49.338;8.794;2023-01-31T07:09:53;101354.94;;;3.40
63158;BMP280;49381;49.338;8.794;2023-01-31T07:11:54;101346.47;;;3.38
63158;BMP280;49381;49.338;8.794;2023-01-31T07:13:54;101356.66;;;3.41
63158;BMP280;49381;49.338;8.794;2023-01-31T07:15:54;101345.22;;;3.46
63158;BMP280;49381;49.338;8.794;2023-01-31T07:17:57;101356.09;;;3.46
63158;BMP280;49381;49.338;8.794;2023-01-31T07:19:57;101354.84;;;3.54
63158;BMP280;49381;49.338;8.794;2023-01-31T07:21:58;101355.78;;;3.56
63158;BMP280;49381;49.338;8.794;2023-01-31T07:24:02;101359.13;;;3.56
63158;BMP280;49381;49.338;8.794;2023-01-31T07:26:05;101360.09;;;3.58
63158;BMP280;49381;49.338;8.794;2023-01-31T07:28:11;101364.31;;;3.59
63158;BMP280;49381;49.338;8.794;2023-01-31T07:30:12;101370.31;;;3.63
63158;BMP280;49381;49.338;8.794;2023-01-31T07:32:12;101369.03;;;3.53
63158;BMP280;49381;49.338;8.794;2023-01-31T07:34:17;101369.16;;;3.56
63158;BMP280;49381;49.338;8.794;2023-01-31T07:36:17;101371.03;;;3.60
63158;BMP280;49381;49.338;8.794;2023-01-31T07:38:19;101373.38;;;3.57
63158;BMP280;49381;49.338;8.794;2023-01-31T07:40:20;101377.63;;;3.58
63158;BMP280;49381;49.338;8.794;2023-01-31T07:42:23;101383.22;;;3.53
63158;BMP280;49381;49.338;8.794;2023-01-31T07:44:24;101383.97;;;3.52
63158;BMP280;49381;49.338;8.794;2023-01-31T07:46:29;101384.66;;;3.65
63158;BMP280;49381;49.338;8.794;2023-01-31T07:48:37;101390.69;;;3.69
63158;BMP280;49381;49.338;8.794;2023-01-31T07:50:38;101386.38;;;3.66
63158;BMP280;49381;49.338;8.794;2023-01-31T07:52:40;101386.53;;;3.69
63158;BMP280;49381;49.338;8.794;2023-01-31T07:54:40;101388.56;;;3.76
63158;BMP280;49381;49.338;8.794;2023-01-31T07:56:45;101394.44;;;3.76
63158;BMP280;49381;49.338;8.794;2023-01-31T07:58:49;101390.53;;;3.66
63158;BMP280;49381;49.338;8.794;2023-01-31T08:00:52;101398.28;;;3.70
63158;BMP280;49381;49.338;8.794;2023-01-31T08:03:00;101389.06;;;3.69
63158;BMP280;49381;49.338;8.794;2023-01-31T08:05:01;101386.03;;;3.76
63158;BMP280;49381;49.338;8.794;2023-01-31T08:07:01;101385.56;;;3.83
63158;BMP280;49381;49.338;8.794;2023-01-31T08:09:02;101380.72;;;3.70
63158;BMP280;49381;49.338;8.794;2023-01-31T08:11:06;101393.28;;;3.70
63158;BMP280;49381;49.338;8.794;2023-01-31T08:13:07;101388.88;;;3.66
63158;BMP280;49381;49.338;8.794;2023-01-31T08:15:10;101384.97;;;3.71
63158;BMP280;49381;49.338;8.794;2023-01-31T08:17:10;101385.25;;;3.77
63158;BMP280;49381;49.338;8.794;2023-01-31T08:19:11;101385.47;;;3.81
63158;BMP280;49381;49.338;8.794;2023-01-31T08:21:14;101392.44;;;3.87
63158;BMP280;49381;49.338;8.794;2023-01-31T08:23:15;101384.44;;;3.94
63158;BMP280;49381;49.338;8.794;2023-01-31T08:25:17;101383.78;;;3.98
63158;BMP280;49381;49.338;8.794;2023-01-31T08:27:18;101387.47;;;4.04
63158;BMP280;49381;49.338;8.794;2023-01-31T08:29:18;101391.84;;;4.08
63158;BMP280;49381;49.338;8.794;2023-01-31T08:31:22;101389.41;;;4.09
63158;BMP280;49381;49.338;8.794;2023-01-31T08:33:23;101394.88;;;4.02
63158;BMP280;49381;49.338;8.794;2023-01-31T08:35:24;101395.34;;;4.11
63158;BMP280;49381;49.338;8.794;2023-01-31T08:37:26;101392.19;;;4.15
63158;BMP280;49381;49.338;8.794;2023-01-31T08:39:27;101389.03;;;4.19
63158;BMP280;49381;49.338;8.794;2023-01-31T08:41:28;101382.31;;;4.18
63158;BMP280;49381;49.338;8.794;2023-01-31T08:43:29;101385.97;;;4.25
63158;BMP280;49381;49.338;8.794;2023-01-31T08:45:29;101380.19;;;4.27
63158;BMP280;49381;49.338;8.794;2023-01-31T08:47:31;101388.69;;;4.29
63158;BMP280;49381;49.338;8.794;2023-01-31T08:49:32;101379.72;;;4.34
63158;BMP280;49381;49.338;8.794;2023-01-31T08:51:33;101379.09;;;4.38
63158;BMP280;49381;49.338;8.794;2023-01-31T08:53:33;101379.13;;;4.39
63158;BMP280;49381;49.338;8.794;2023-01-31T08:55:42;101394.19;;;4.05
63158;BMP280;49381;49.338;8.794;2023-01-31T08:57:43;101374.31;;;4.26
63158;BMP280;49381;49.338;8.794;2023-01-31T08:59:47;101376.34;;;4.33
63158;BMP280;49381;49.338;8.794;2023-01-31T09:01:50;101373.63;;;4.29
63158;BMP280;49381;49.338;8.794;2023-01-31T09:06:30;101377.66;;;4.43
63158;BMP280;49381;49.338;8.794;2023-01-31T09:08:32;101383.53;;;4.43
63158;BMP280;49381;49.338;8.794;2023-01-31T09:10:32;101377.91;;;4.49
63158;BMP280;49381;49.338;8.794;2023-01-31T09:12:33;101375.50;;;4.33
63158;BMP280;49381;49.338;8.794;2023-01-31T09:14:33;101380.22;;;4.44
63158;BMP280;49381;49.338;8.794;2023-01-31T09:16:34;101374.66;;;4.51
63158;BMP280;49381;49.338;8.794;2023-01-31T09:18:37;101384.13;;;4.56
63158;BMP280;49381;49.338;8.794;2023-01-31T09:20:39;101384.38;;;4.44
63158;BMP280;49381;49.338;8.794;2023-01-31T09:22:55;101382.41;;;4.55
63158;BMP280;49381;49.338;8.794;2023-01-31T09:24:56;101378.63;;;4.63
63158;BMP280;49381;49.338;8.794;2023-01-31T09:26:56;101385.69;;;4.72
63158;BMP280;49381;49.338;8.794;2023-01-31T09:28:58;101375.19;;;4.80
63158;BMP280;49381;49.338;8.794;2023-01-31T09:31:02;101368.03;;;4.87
63158;BMP280;49381;49.338;8.794;2023-01-31T09:33:06;101364.06;;;4.92
63158;BMP280;49381;49.338;8.794;2023-01-31T09:35:07;101373.41;;;4.96
63158;BMP280;49381;49.338;8.794;2023-01-31T09:37:07;101374.97;;;4.93
63158;BMP280;49381;49.338;8.794;2023-01-31T09:39:13;101382.50;;;4.93
63158;BMP280;49381;49.338;8.794;2023-01-31T09:41:22;101385.94;;;4.95
63158;BMP280;49381;49.338;8.794;2023-01-31T09:43:36;101388.59;;;4.98
63158;BMP280;49381;49.338;8.794;2023-01-31T09:45:39;101372.91;;;5.03
63158;BMP280;49381;49.338;8.794;2023-01-31T09:47:43;101362.41;;;4.93
63158;BMP280;49381;49.338;8.794;2023-01-31T09:49:50;101354.31;;;5.00
63158;BMP280;49381;49.338;8.794;2023-01-31T09:51:54;101361.72;;;4.97
63158;BMP280;49381;49.338;8.794;2023-01-31T09:54:05;101368.81;;;5.05
63158;BMP280;49381;49.338;8.794;2023-01-31T09:56:34;101360.94;;;5.16
63158;BMP280;49381;49.338;8.794;2023-01-31T09:58:48;101360.06;;;5.16
63158;BMP280;49381;49.338;8.794;2023-01-31T10:00:56;101358.97;;;5.09
63158;BMP280;49381;49.338;8.794;2023-01-31T10:03:26;101354.00;;;5.11
63158;BMP280;49381;49.338;8.794;2023-01-31T10:05:39;101364.91;;;4.93
63158;BMP280;49381;49.338;8.794;2023-01-31T10:08:03;101369.31;;;4.79
63158;BMP280;49381;49.338;8.794;2023-01-31T10:10:12;101368.00;;;5.06
63158;BMP280;49381;49.338;8.794;2023-01-31T10:12:24;101372.97;;;5.04
63158;BMP280;49381;49.338;8.794;2023-01-31T10:14:32;101377.75;;;5.17
63158;BMP280;49381;49.338;8.794;2023-01-31T10:16:37;101376.56;;;5.28
63158;BMP280;49381;49.338;8.794;2023-01-31T10:19:01;101371.13;;;5.38
63158;BMP280;49381;49.338;8.794;2023-01-31T10:21:08;101375.66;;;5.46
63158;BMP280;49381;49.338;8.794;2023-01-31T10:23:19;101370.56;;;5.45
63158;BMP280;49381;49.338;8.794;2023-01-31T10:25:31;101368.47;;;5.16
63158;BMP280;49381;49.338;8.794;2023-01-31T10:27:46;101366.94;;;5.38
63158;BMP280;49381;49.338;8.794;2023-01-31T10:30:13;101362.97;;;5.43
63158;BMP280;49381;49.338;8.794;2023-01-31T10:32:18;101365.13;;;5.54
63158;BMP280;49381;49.338;8.794;2023-01-31T10:34:30;101361.41;;;5.65
63158;BMP280;49381;49.338;8.794;2023-01-31T10:36:41;101354.00;;;5.68
63158;BMP280;49381;49.338;8.794;2023-01-31T10:38:53;101353.59;;;5.59
63158;BMP280;49381;49.338;8.794;2023-01-31T10:41:05;101333.00;;;5.68
63158;BMP280;49381;49.338;8.794;2023-01-31T10:43:15;101324.59;;;5.67
63158;BMP280;49381;49.338;8.794;2023-01-31T10:45:26;101313.22;;;5.56
63158;BMP280;49381;49.338;8.794;2023-01-31T10:47:31;101317.59;;;5.60
63158;BMP280;49381;49.338;8.794;2023-01-31T10:49:32;101319.25;;;5.60
63158;BMP280;49381;49.338;8.794;2023-01-31T10:51:44;101320.25;;;5.63
63158;BMP280;49381;49.338;8.794;2023-01-31T10:54:01;101323.25;;;5.55
63158;BMP280;49381;49.338;8.794;2023-01-31T10:56:06;101294.84;;;5.57
63158;BMP280;49381;49.338;8.794;2023-01-31T10:58:15;101295.19;;;5.66
63158;BMP280;49381;49.338;8.794;2023-01-31T11:00:20;101304.75;;;5.73
63158;BMP280;49381;49.338;8.794;2023-01-31T11:02:23;101296.59;;;5.78
63158;BMP280;49381;49.338;8.794;2023-01-31T11:04:29;101294.13;;;5.80
63158;BMP280;49381;49.338;8.794;2023-01-31T11:06:29;101287.94;;;5.72
63158;BMP280;49381;49.338;8.794;2023-01-31T11:08:39;101301.88;;;5.84
63158;BMP280;49381;49.338;8.794;2023-01-31T11:10:50;101301.28;;;5.91
63158;BMP280;49381;49.338;8.794;2023-01-31T11:12:55;101311.75;;;5.80
63158;BMP280;49381;49.338;8.794;2023-01-31T11:15:14;101300.34;;;5.88
63158;BMP280;49381;49.338;8.794;2023-01-31T11:17:16;101302.94;;;5.91
63158;BMP280;49381;49.338;8.794;2023-01-31T11:19:26;101300.53;;;5.92
63158;BMP280;49381;49.338;8.794;2023-01-31T11:21:30;101299.69;;;5.72
63158;BMP280;49381;49.338;8.794;2023-01-31T11:23:34;101297.91;;;5.91
63158;BMP280;49381;49.338;8.794;2023-01-31T11:25:35;101295.41;;;5.91
63158;BMP280;49381;49.338;8.794;2023-01-31T11:27:39;101298.84;;;5.93
63158;BMP280;49381;49.338;8.794;2023-01-31T11:29:46;101279.41;;;5.89
63158;BMP280;49381;49.338;8.794;2023-01-31T11:31:49;101271.97;;;5.92
63158;BMP280;49381;49.338;8.794;2023-01-31T11:33:55;101262.59;;;5.88
63158;BMP280;49381;49.338;8.794;2023-01-31T11:35:56;101265.22;;;5.91
63158;BMP280;49381;49.338;8.794;2023-01-31T11:37:59;101254.59;;;5.98
63158;BMP280;49381;49.338;8.794;2023-01-31T11:40:04;101251.28;;;5.99
63158;BMP280;49381;49.338;8.794;2023-01-31T11:42:17;101238.25;;;5.87
63158;BMP280;49381;49.338;8.794;2023-01-31T11:44:23;101234.34;;;5.95
63158;BMP280;49381;49.338;8.794;2023-01-31T11:46:39;101215.91;;;5.96
63158;BMP280;49381;49.338;8.794;2023-01-31T11:48:59;101218.69;;;6.02
63158;BMP280;49381;49.338;8.794;2023-01-31T11:51:12;101206.16;;;6.03
63158;BMP280;49381;49.338;8.794;2023-01-31T11:53:25;101223.00;;;6.05
63158;BMP280;49381;49.338;8.794;2023-01-31T11:55:36;101230.69;;;6.08
63158;BMP280;49381;49.338;8.794;2023-01-31T11:57:45;101229.47;;;5.99
63158;BMP280;49381;49.338;8.794;2023-01-31T11:59:48;101235.19;;;5.95